NOZ390 ENGM-ENSB
Flight info
| Callsign | NOZ390 |
|---|---|
| Flight time | 2h 53m |
| Altitude | 36000 |
| Route | RIBBE DCT OMEXA DCT SUSES |
| Aircraft | B738/M-SDE2E3FGHIRWXY/LB1 |
Departure
| Time | 2026-05-05 10:10 |
|---|---|
| Airport | Oslo-Gardermoen International Airport (ENGM) |
Arrival
| Time | 2026-05-05 13:03 |
|---|---|
| Airport | Svalbard Airport, Longyear (ENSB) |
| Time | Latitude | Longitude | Altitude | Speed | Heading |
|---|---|---|---|---|---|
| 2026-05-05 09:36 | 60.19390 | 11.10646 | 684 ft | 0 kts | 196° |
| 2026-05-05 09:54 | 60.19391 | 11.10647 | 684 ft | 1 kts | 196° |
| 2026-05-05 09:54 | 60.19415 | 11.10660 | 684 ft | 4 kts | 196° |
| 2026-05-05 09:55 | 60.19441 | 11.10675 | 684 ft | 4 kts | 195° |
| 2026-05-05 09:55 | 60.19461 | 11.10688 | 680 ft | 3 kts | 195° |
| 2026-05-05 09:55 | 60.19486 | 11.10693 | 678 ft | 4 kts | 156° |
| 2026-05-05 09:55 | 60.19500 | 11.10667 | 675 ft | 2 kts | 106° |
| 2026-05-05 09:56 | 60.19494 | 11.10710 | 679 ft | 4 kts | 106° |
| 2026-05-05 09:56 | 60.19490 | 11.10739 | 679 ft | 0 kts | 106° |
| 2026-05-05 10:05 | 60.19488 | 11.10750 | 682 ft | 2 kts | 106° |
| 2026-05-05 10:05 | 60.19475 | 11.10838 | 680 ft | 10 kts | 107° |
| 2026-05-05 10:05 | 60.19456 | 11.10967 | 682 ft | 10 kts | 106° |
| 2026-05-05 10:05 | 60.19439 | 11.11092 | 682 ft | 9 kts | 105° |
| 2026-05-05 10:06 | 60.19424 | 11.11232 | 682 ft | 11 kts | 83° |
| 2026-05-05 10:06 | 60.19487 | 11.11320 | 681 ft | 13 kts | 16° |
| 2026-05-05 10:06 | 60.19579 | 11.11372 | 680 ft | 14 kts | 15° |
| 2026-05-05 10:06 | 60.19673 | 11.11423 | 682 ft | 14 kts | 14° |
| 2026-05-05 10:07 | 60.19770 | 11.11472 | 683 ft | 14 kts | 13° |
| 2026-05-05 10:07 | 60.19864 | 11.11525 | 682 ft | 14 kts | 20° |
| 2026-05-05 10:07 | 60.19956 | 11.11591 | 681 ft | 14 kts | 19° |
| 2026-05-05 10:07 | 60.20048 | 11.11645 | 679 ft | 14 kts | 15° |
| 2026-05-05 10:08 | 60.20139 | 11.11694 | 686 ft | 13 kts | 15° |
| 2026-05-05 10:08 | 60.20168 | 11.11843 | 682 ft | 15 kts | 107° |
| 2026-05-05 10:08 | 60.20139 | 11.12041 | 682 ft | 15 kts | 105° |
| 2026-05-05 10:08 | 60.20086 | 11.12200 | 688 ft | 14 kts | 156° |
| 2026-05-05 10:09 | 60.19993 | 11.12175 | 685 ft | 14 kts | 196° |
| 2026-05-05 10:09 | 60.19806 | 11.12065 | 685 ft | 62 kts | 196° |
| 2026-05-05 10:09 | 60.19128 | 11.11673 | 683 ft | 138 kts | 195° |
| 2026-05-05 10:09 | 60.18019 | 11.11089 | 903 ft | 181 kts | 197° |
| 2026-05-05 10:10 | 60.16751 | 11.10446 | 1853 ft | 191 kts | 196° |
| 2026-05-05 10:10 | 60.15479 | 11.09779 | 2904 ft | 195 kts | 199° |
| 2026-05-05 10:10 | 60.14090 | 11.09016 | 3211 ft | 222 kts | 190° |
| 2026-05-05 10:10 | 60.12529 | 11.09686 | 3601 ft | 245 kts | 147° |
| 2026-05-05 10:11 | 60.11296 | 11.12204 | 4067 ft | 265 kts | 131° |
| 2026-05-05 10:11 | 60.10064 | 11.15031 | 4856 ft | 272 kts | 133° |
| 2026-05-05 10:11 | 60.08786 | 11.17850 | 5743 ft | 275 kts | 133° |
| 2026-05-05 10:11 | 60.07722 | 11.21044 | 6536 ft | 277 kts | 109° |
| 2026-05-05 10:12 | 60.07506 | 11.24852 | 6932 ft | 279 kts | 79° |
| 2026-05-05 10:12 | 60.08227 | 11.28413 | 6975 ft | 278 kts | 51° |
| 2026-05-05 10:12 | 60.09522 | 11.31259 | 7003 ft | 277 kts | 41° |
| 2026-05-05 10:12 | 60.10933 | 11.33901 | 7104 ft | 279 kts | 40° |
| 2026-05-05 10:13 | 60.12363 | 11.36573 | 7853 ft | 280 kts | 41° |
| 2026-05-05 10:13 | 60.13772 | 11.39260 | 8813 ft | 281 kts | 41° |
| 2026-05-05 10:13 | 60.15195 | 11.42001 | 9605 ft | 286 kts | 41° |
| 2026-05-05 10:13 | 60.16665 | 11.44686 | 10402 ft | 287 kts | 32° |
| 2026-05-05 10:14 | 60.18472 | 11.46347 | 11126 ft | 286 kts | 16° |
| 2026-05-05 10:14 | 60.20362 | 11.47664 | 11883 ft | 290 kts | 15° |
| 2026-05-05 10:14 | 60.22328 | 11.49026 | 12211 ft | 310 kts | 15° |
| 2026-05-05 10:14 | 60.24442 | 11.50483 | 12423 ft | 332 kts | 15° |
| 2026-05-05 10:15 | 60.26678 | 11.52010 | 12880 ft | 345 kts | 15° |
| 2026-05-05 10:15 | 60.28973 | 11.53555 | 13584 ft | 350 kts | 15° |
| 2026-05-05 10:15 | 60.31290 | 11.55110 | 14276 ft | 354 kts | 15° |
| 2026-05-05 10:15 | 60.33631 | 11.56829 | 14858 ft | 362 kts | 18° |
| 2026-05-05 10:16 | 60.35984 | 11.58751 | 15426 ft | 368 kts | 17° |
| 2026-05-05 10:16 | 60.38389 | 11.60630 | 15996 ft | 374 kts | 15° |
| 2026-05-05 10:16 | 60.40842 | 11.62465 | 16583 ft | 379 kts | 14° |
| 2026-05-05 10:16 | 60.43367 | 11.64062 | 17155 ft | 379 kts | 4° |
| 2026-05-05 10:17 | 60.45963 | 11.64867 | 17791 ft | 379 kts | 359° |
| 2026-05-05 10:17 | 60.48598 | 11.65485 | 18383 ft | 383 kts | 358° |
| 2026-05-05 10:17 | 60.51275 | 11.66093 | 18910 ft | 389 kts | 357° |
| 2026-05-05 10:17 | 60.53974 | 11.66738 | 19457 ft | 394 kts | 358° |
| 2026-05-05 10:18 | 60.56710 | 11.67433 | 20029 ft | 397 kts | 358° |
| 2026-05-05 10:18 | 60.59466 | 11.68162 | 20521 ft | 403 kts | 357° |
| 2026-05-05 10:18 | 60.62263 | 11.68920 | 20962 ft | 408 kts | 357° |
| 2026-05-05 10:18 | 60.65094 | 11.69698 | 21427 ft | 413 kts | 356° |
| 2026-05-05 10:19 | 60.67961 | 11.70491 | 21917 ft | 418 kts | 356° |
| 2026-05-05 10:19 | 60.70852 | 11.71294 | 22375 ft | 422 kts | 355° |
| 2026-05-05 10:19 | 60.73779 | 11.72107 | 22802 ft | 427 kts | 355° |
| 2026-05-05 10:19 | 60.76739 | 11.72928 | 23191 ft | 432 kts | 354° |
| 2026-05-05 10:20 | 60.79723 | 11.73760 | 23636 ft | 435 kts | 354° |
| 2026-05-05 10:20 | 60.82736 | 11.74596 | 24131 ft | 436 kts | 355° |
| 2026-05-05 10:20 | 60.85732 | 11.75084 | 24660 ft | 428 kts | 351° |
| 2026-05-05 10:20 | 60.88692 | 11.75218 | 25077 ft | 428 kts | 349° |
| 2026-05-05 10:21 | 60.91681 | 11.75237 | 25442 ft | 431 kts | 350° |
| 2026-05-05 10:21 | 60.94690 | 11.75259 | 25841 ft | 434 kts | 351° |
| 2026-05-05 10:21 | 60.97722 | 11.75326 | 26229 ft | 436 kts | 351° |
| 2026-05-05 10:21 | 61.00768 | 11.75435 | 26572 ft | 440 kts | 351° |
| 2026-05-05 10:22 | 61.03841 | 11.75572 | 26902 ft | 443 kts | 352° |
| 2026-05-05 10:22 | 61.06929 | 11.75723 | 27235 ft | 446 kts | 352° |
| 2026-05-05 10:22 | 61.10041 | 11.75881 | 27562 ft | 448 kts | 352° |
| 2026-05-05 10:22 | 61.13170 | 11.76037 | 27877 ft | 451 kts | 352° |
| 2026-05-05 10:23 | 61.16305 | 11.76189 | 28189 ft | 453 kts | 352° |
| 2026-05-05 10:23 | 61.19461 | 11.76184 | 28486 ft | 448 kts | 344° |
| 2026-05-05 10:23 | 61.22388 | 11.74580 | 28754 ft | 427 kts | 326° |
| 2026-05-05 10:23 | 61.24888 | 11.71516 | 29097 ft | 411 kts | 313° |
| 2026-05-05 10:24 | 61.27028 | 11.67648 | 29410 ft | 408 kts | 309° |
| 2026-05-05 10:24 | 61.29128 | 11.63649 | 29678 ft | 411 kts | 309° |
| 2026-05-05 10:24 | 61.31265 | 11.59641 | 29907 ft | 415 kts | 310° |
| 2026-05-05 10:24 | 61.33430 | 11.55657 | 30162 ft | 416 kts | 310° |
| 2026-05-05 10:25 | 61.35733 | 11.51952 | 30440 ft | 429 kts | 322° |
| 2026-05-05 10:25 | 61.38547 | 11.49544 | 30729 ft | 446 kts | 336° |
| 2026-05-05 10:25 | 61.41669 | 11.48587 | 30994 ft | 465 kts | 351° |
| 2026-05-05 10:25 | 61.44930 | 11.48828 | 31339 ft | 470 kts | 355° |
| 2026-05-05 10:26 | 61.48207 | 11.49293 | 31577 ft | 473 kts | 356° |
| 2026-05-05 10:26 | 61.51489 | 11.49833 | 31825 ft | 474 kts | 357° |
| 2026-05-05 10:26 | 61.54775 | 11.50378 | 32134 ft | 473 kts | 357° |
| 2026-05-05 10:26 | 61.58049 | 11.50897 | 32455 ft | 472 kts | 357° |
| 2026-05-05 10:27 | 61.61328 | 11.51385 | 32730 ft | 472 kts | 356° |
| 2026-05-05 10:27 | 61.64557 | 11.51839 | 32989 ft | 472 kts | 356° |
| 2026-05-05 10:27 | 61.67839 | 11.52283 | 33264 ft | 472 kts | 356° |
| 2026-05-05 10:27 | 61.71111 | 11.52717 | 33532 ft | 472 kts | 356° |
| 2026-05-05 10:28 | 61.74390 | 11.53149 | 33855 ft | 472 kts | 356° |
| 2026-05-05 10:28 | 61.77672 | 11.53580 | 34018 ft | 474 kts | 357° |
| 2026-05-05 10:28 | 61.80954 | 11.54012 | 34186 ft | 474 kts | 357° |
| 2026-05-05 10:28 | 61.84254 | 11.54452 | 34434 ft | 473 kts | 357° |
| 2026-05-05 10:29 | 61.87532 | 11.54892 | 34690 ft | 471 kts | 357° |
| 2026-05-05 10:29 | 61.90804 | 11.55332 | 34902 ft | 470 kts | 358° |
| 2026-05-05 10:29 | 61.94067 | 11.55771 | 35094 ft | 470 kts | 358° |
| 2026-05-05 10:29 | 61.97336 | 11.56211 | 35258 ft | 471 kts | 358° |
| 2026-05-05 10:30 | 62.00605 | 11.56651 | 35458 ft | 471 kts | 358° |
| 2026-05-05 10:30 | 62.03865 | 11.57093 | 35728 ft | 468 kts | 358° |
| 2026-05-05 10:30 | 62.07111 | 11.57534 | 36012 ft | 467 kts | 358° |
| 2026-05-05 10:30 | 62.10356 | 11.57976 | 36198 ft | 467 kts | 358° |
| 2026-05-05 10:31 | 62.13596 | 11.58416 | 36349 ft | 467 kts | 358° |
| 2026-05-05 10:31 | 62.16827 | 11.58856 | 36509 ft | 467 kts | 358° |
| 2026-05-05 10:31 | 62.20076 | 11.59300 | 36684 ft | 467 kts | 358° |
| 2026-05-05 10:31 | 62.23317 | 11.59744 | 36846 ft | 467 kts | 358° |
| 2026-05-05 10:32 | 62.29820 | 11.60635 | 36855 ft | 468 kts | 358° |
| 2026-05-05 10:32 | 62.36304 | 11.61533 | 36875 ft | 466 kts | 359° |
| 2026-05-05 10:33 | 62.42772 | 11.62432 | 36855 ft | 464 kts | 359° |
| 2026-05-05 10:33 | 62.49191 | 11.63327 | 36854 ft | 462 kts | 359° |
| 2026-05-05 10:34 | 62.55599 | 11.64223 | 36852 ft | 461 kts | 359° |
| 2026-05-05 10:34 | 62.62012 | 11.65122 | 36801 ft | 461 kts | 359° |
| 2026-05-05 10:35 | 62.68424 | 11.66025 | 36809 ft | 463 kts | 359° |
| 2026-05-05 10:35 | 62.74856 | 11.66935 | 36826 ft | 464 kts | 359° |
| 2026-05-05 10:36 | 62.81314 | 11.67854 | 36840 ft | 465 kts | 359° |
| 2026-05-05 10:36 | 62.87783 | 11.68779 | 36848 ft | 467 kts | 359° |
| 2026-05-05 10:37 | 62.94268 | 11.69711 | 36860 ft | 467 kts | 359° |
| 2026-05-05 10:37 | 63.00769 | 11.70648 | 36868 ft | 469 kts | 360° |
| 2026-05-05 10:38 | 63.07283 | 11.71593 | 36857 ft | 470 kts | 360° |
| 2026-05-05 10:38 | 63.13807 | 11.72543 | 36861 ft | 470 kts | 360° |
| 2026-05-05 10:39 | 63.20322 | 11.73497 | 36854 ft | 469 kts | 360° |
| 2026-05-05 10:39 | 63.26782 | 11.74446 | 36881 ft | 468 kts | 0° |
| 2026-05-05 10:40 | 63.33281 | 11.75404 | 36865 ft | 467 kts | 0° |
| 2026-05-05 10:40 | 63.39765 | 11.76365 | 36846 ft | 467 kts | 0° |
| 2026-05-05 10:41 | 63.46241 | 11.77330 | 36851 ft | 466 kts | 0° |
| 2026-05-05 10:41 | 63.52707 | 11.78297 | 36838 ft | 465 kts | 0° |
| 2026-05-05 10:42 | 63.62388 | 11.79752 | 36853 ft | 465 kts | 0° |
| 2026-05-05 10:43 | 63.68840 | 11.80727 | 36828 ft | 465 kts | 0° |
| 2026-05-05 10:43 | 63.75290 | 11.81708 | 36827 ft | 465 kts | 0° |
| 2026-05-05 10:44 | 63.81746 | 11.82693 | 36822 ft | 465 kts | 0° |
| 2026-05-05 10:44 | 63.88183 | 11.83679 | 36833 ft | 465 kts | 0° |
| 2026-05-05 10:45 | 63.94637 | 11.84673 | 36818 ft | 466 kts | 0° |
| 2026-05-05 10:45 | 64.01114 | 11.85676 | 36804 ft | 466 kts | 0° |
| 2026-05-05 10:46 | 64.07580 | 11.86682 | 36815 ft | 466 kts | 1° |
| 2026-05-05 10:46 | 64.14047 | 11.87692 | 36792 ft | 466 kts | 1° |
| 2026-05-05 10:47 | 64.20478 | 11.88701 | 36799 ft | 466 kts | 1° |
| 2026-05-05 10:47 | 64.26934 | 11.89719 | 36798 ft | 465 kts | 1° |
| 2026-05-05 10:48 | 64.33396 | 11.90743 | 36795 ft | 465 kts | 1° |
| 2026-05-05 10:48 | 64.39852 | 11.91770 | 36796 ft | 465 kts | 1° |
| 2026-05-05 10:49 | 64.46308 | 11.92803 | 36800 ft | 465 kts | 1° |
| 2026-05-05 10:49 | 64.51716 | 11.93671 | 36803 ft | 465 kts | 1° |
| 2026-05-05 10:50 | 64.58166 | 11.94711 | 36798 ft | 464 kts | 1° |
| 2026-05-05 10:50 | 64.64613 | 11.95757 | 36790 ft | 464 kts | 1° |
| 2026-05-05 10:51 | 64.71057 | 11.96806 | 36774 ft | 464 kts | 1° |
| 2026-05-05 10:51 | 64.77459 | 11.97853 | 36769 ft | 464 kts | 1° |
| 2026-05-05 10:52 | 64.83908 | 11.98913 | 36788 ft | 465 kts | 1° |
| 2026-05-05 10:52 | 64.90356 | 11.99979 | 36767 ft | 465 kts | 1° |
| 2026-05-05 10:53 | 64.96813 | 12.01050 | 36759 ft | 465 kts | 1° |
| 2026-05-05 10:53 | 65.03259 | 12.02125 | 36761 ft | 465 kts | 1° |
| 2026-05-05 10:54 | 65.09719 | 12.03208 | 36750 ft | 465 kts | 1° |
| 2026-05-05 10:54 | 65.16169 | 12.04295 | 36757 ft | 465 kts | 1° |
| 2026-05-05 10:55 | 65.22624 | 12.05387 | 36753 ft | 465 kts | 1° |
| 2026-05-05 10:55 | 65.29079 | 12.06485 | 36737 ft | 465 kts | 1° |
| 2026-05-05 10:56 | 65.35528 | 12.07587 | 36737 ft | 465 kts | 1° |
| 2026-05-05 10:56 | 65.41975 | 12.08695 | 36741 ft | 464 kts | 1° |
| 2026-05-05 10:57 | 65.48416 | 12.09806 | 36751 ft | 464 kts | 1° |
| 2026-05-05 10:57 | 65.54871 | 12.10926 | 36739 ft | 465 kts | 1° |
| 2026-05-05 10:58 | 65.61315 | 12.12050 | 36742 ft | 464 kts | 1° |
| 2026-05-05 10:58 | 65.67760 | 12.13179 | 36734 ft | 464 kts | 1° |
| 2026-05-05 10:59 | 65.74195 | 12.14312 | 36726 ft | 464 kts | 2° |
| 2026-05-05 10:59 | 65.80628 | 12.15450 | 36721 ft | 464 kts | 2° |
| 2026-05-05 11:00 | 65.87072 | 12.16596 | 36718 ft | 464 kts | 2° |
| 2026-05-05 11:00 | 65.93506 | 12.17746 | 36709 ft | 464 kts | 2° |
| 2026-05-05 11:01 | 65.99943 | 12.18902 | 36720 ft | 463 kts | 2° |
| 2026-05-05 11:01 | 66.06357 | 12.20061 | 36719 ft | 463 kts | 2° |
| 2026-05-05 11:02 | 66.12785 | 12.21227 | 36716 ft | 463 kts | 2° |
| 2026-05-05 11:02 | 66.19218 | 12.22400 | 36687 ft | 463 kts | 2° |
| 2026-05-05 11:03 | 66.25632 | 12.23577 | 36677 ft | 463 kts | 1° |
| 2026-05-05 11:03 | 66.32053 | 12.24759 | 36659 ft | 463 kts | 2° |
| 2026-05-05 11:04 | 66.38475 | 12.25949 | 36661 ft | 462 kts | 2° |
| 2026-05-05 11:04 | 66.44886 | 12.27142 | 36653 ft | 462 kts | 2° |
| 2026-05-05 11:05 | 66.51295 | 12.28341 | 36645 ft | 462 kts | 2° |
| 2026-05-05 11:05 | 66.57696 | 12.29546 | 36628 ft | 461 kts | 2° |
| 2026-05-05 11:06 | 66.64095 | 12.30756 | 36626 ft | 461 kts | 2° |
| 2026-05-05 11:06 | 66.70489 | 12.31971 | 36613 ft | 461 kts | 2° |
| 2026-05-05 11:07 | 66.76880 | 12.33191 | 36623 ft | 461 kts | 2° |
| 2026-05-05 11:07 | 66.83271 | 12.34418 | 36598 ft | 461 kts | 2° |
| 2026-05-05 11:08 | 66.89667 | 12.35653 | 36596 ft | 461 kts | 2° |
| 2026-05-05 11:08 | 66.96012 | 12.36885 | 36591 ft | 460 kts | 2° |
| 2026-05-05 11:09 | 67.02325 | 12.38116 | 36597 ft | 460 kts | 2° |
| 2026-05-05 11:09 | 67.08670 | 12.39359 | 36596 ft | 461 kts | 3° |
| 2026-05-05 11:10 | 67.15059 | 12.40619 | 36578 ft | 461 kts | 3° |
| 2026-05-05 11:10 | 67.21455 | 12.41888 | 36577 ft | 461 kts | 3° |
| 2026-05-05 11:11 | 67.27842 | 12.43161 | 36577 ft | 461 kts | 3° |
| 2026-05-05 11:11 | 67.34232 | 12.44441 | 36577 ft | 460 kts | 3° |
| 2026-05-05 11:12 | 67.40623 | 12.45728 | 36579 ft | 460 kts | 3° |
| 2026-05-05 11:12 | 67.47009 | 12.47021 | 36585 ft | 460 kts | 3° |
| 2026-05-05 11:13 | 67.53389 | 12.48319 | 36582 ft | 460 kts | 3° |
| 2026-05-05 11:13 | 67.59773 | 12.49626 | 36582 ft | 460 kts | 3° |
| 2026-05-05 11:14 | 67.66154 | 12.50939 | 36585 ft | 460 kts | 3° |
| 2026-05-05 11:14 | 67.72530 | 12.52258 | 36601 ft | 460 kts | 3° |
| 2026-05-05 11:15 | 67.78912 | 12.53586 | 36592 ft | 460 kts | 3° |
| 2026-05-05 11:15 | 67.85294 | 12.54921 | 36597 ft | 460 kts | 3° |
| 2026-05-05 11:16 | 67.91668 | 12.56262 | 36597 ft | 460 kts | 3° |
| 2026-05-05 11:16 | 67.98050 | 12.57612 | 36602 ft | 460 kts | 3° |
| 2026-05-05 11:17 | 68.04426 | 12.58968 | 36613 ft | 460 kts | 3° |
| 2026-05-05 11:17 | 68.10792 | 12.60329 | 36613 ft | 460 kts | 3° |
| 2026-05-05 11:18 | 68.17174 | 12.61701 | 36616 ft | 460 kts | 3° |
| 2026-05-05 11:18 | 68.23548 | 12.63079 | 36616 ft | 460 kts | 3° |
| 2026-05-05 11:19 | 68.29924 | 12.64466 | 36629 ft | 459 kts | 3° |
| 2026-05-05 11:19 | 68.36254 | 12.65850 | 36624 ft | 459 kts | 3° |
| 2026-05-05 11:20 | 68.42667 | 12.67260 | 36636 ft | 459 kts | 3° |
| 2026-05-05 11:20 | 68.49038 | 12.68669 | 36638 ft | 459 kts | 4° |
| 2026-05-05 11:21 | 68.55338 | 12.70070 | 36632 ft | 459 kts | 4° |
| 2026-05-05 11:21 | 68.61698 | 12.71493 | 36641 ft | 458 kts | 4° |
| 2026-05-05 11:22 | 68.68044 | 12.72920 | 36635 ft | 458 kts | 4° |
| 2026-05-05 11:22 | 68.74393 | 12.74356 | 36635 ft | 457 kts | 4° |
| 2026-05-05 11:23 | 68.80724 | 12.75797 | 36639 ft | 456 kts | 4° |
| 2026-05-05 11:23 | 68.87037 | 12.77242 | 36643 ft | 456 kts | 4° |
| 2026-05-05 11:24 | 68.93359 | 12.78697 | 36648 ft | 456 kts | 4° |
| 2026-05-05 11:24 | 68.99675 | 12.80158 | 36646 ft | 455 kts | 4° |
| 2026-05-05 11:25 | 69.05995 | 12.81473 | 36666 ft | 455 kts | 2° |
| 2026-05-05 11:25 | 69.12320 | 12.82424 | 36655 ft | 455 kts | 2° |
| 2026-05-05 11:26 | 69.18621 | 12.83335 | 36653 ft | 455 kts | 2° |
| 2026-05-05 11:26 | 69.24945 | 12.84297 | 36652 ft | 455 kts | 2° |
| 2026-05-05 11:27 | 69.31267 | 12.85294 | 36662 ft | 455 kts | 2° |
| 2026-05-05 11:27 | 69.37582 | 12.86304 | 36654 ft | 455 kts | 2° |
| 2026-05-05 11:28 | 69.43904 | 12.87321 | 36659 ft | 455 kts | 3° |
| 2026-05-05 11:28 | 69.50226 | 12.88345 | 36667 ft | 455 kts | 3° |
| 2026-05-05 11:29 | 69.56529 | 12.89370 | 36660 ft | 455 kts | 3° |
| 2026-05-05 11:29 | 69.62837 | 12.90401 | 36665 ft | 455 kts | 3° |
| 2026-05-05 11:30 | 69.69151 | 12.91440 | 36671 ft | 454 kts | 3° |
| 2026-05-05 11:30 | 69.75462 | 12.92485 | 36679 ft | 454 kts | 3° |
| 2026-05-05 11:31 | 69.81777 | 12.93536 | 36674 ft | 454 kts | 3° |
| 2026-05-05 11:31 | 69.88044 | 12.94586 | 36679 ft | 454 kts | 3° |
| 2026-05-05 11:32 | 69.94347 | 12.95649 | 36690 ft | 454 kts | 3° |
| 2026-05-05 11:32 | 70.00651 | 12.96717 | 36683 ft | 454 kts | 3° |
| 2026-05-05 11:33 | 70.06947 | 12.97791 | 36679 ft | 453 kts | 3° |
| 2026-05-05 11:33 | 70.13238 | 12.98871 | 36691 ft | 453 kts | 3° |
| 2026-05-05 11:34 | 70.19529 | 12.99957 | 36691 ft | 452 kts | 3° |
| 2026-05-05 11:34 | 70.25809 | 13.01048 | 36682 ft | 452 kts | 3° |
| 2026-05-05 11:35 | 70.31069 | 13.01967 | 36693 ft | 452 kts | 3° |
| 2026-05-05 11:35 | 70.37349 | 13.03070 | 36698 ft | 452 kts | 3° |
| 2026-05-05 11:36 | 70.43614 | 13.04177 | 36702 ft | 451 kts | 4° |
| 2026-05-05 11:36 | 70.49884 | 13.05293 | 36696 ft | 451 kts | 4° |
| 2026-05-05 11:37 | 70.56126 | 13.06410 | 36727 ft | 450 kts | 4° |
| 2026-05-05 11:37 | 70.62381 | 13.07536 | 36703 ft | 450 kts | 4° |
| 2026-05-05 11:38 | 70.68620 | 13.08667 | 36709 ft | 449 kts | 4° |
| 2026-05-05 11:38 | 70.74804 | 13.09794 | 36734 ft | 448 kts | 4° |
| 2026-05-05 11:39 | 70.81028 | 13.10936 | 36726 ft | 447 kts | 4° |
| 2026-05-05 11:39 | 70.87235 | 13.12082 | 36723 ft | 447 kts | 4° |
| 2026-05-05 11:40 | 70.93443 | 13.13235 | 36729 ft | 447 kts | 4° |
| 2026-05-05 11:40 | 70.99643 | 13.14394 | 36734 ft | 446 kts | 4° |
| 2026-05-05 11:41 | 71.05701 | 13.15534 | 36723 ft | 447 kts | 4° |
| 2026-05-05 11:41 | 71.11911 | 13.16709 | 36748 ft | 447 kts | 4° |
| 2026-05-05 11:42 | 71.18126 | 13.17893 | 36753 ft | 447 kts | 4° |
| 2026-05-05 11:42 | 71.24338 | 13.19084 | 36745 ft | 447 kts | 4° |
| 2026-05-05 11:43 | 71.30550 | 13.20282 | 36762 ft | 448 kts | 4° |
| 2026-05-05 11:43 | 71.36767 | 13.21489 | 36776 ft | 447 kts | 4° |
| 2026-05-05 11:44 | 71.42983 | 13.22704 | 36768 ft | 448 kts | 4° |
| 2026-05-05 11:44 | 71.49202 | 13.23927 | 36768 ft | 448 kts | 4° |
| 2026-05-05 11:45 | 71.55417 | 13.25157 | 36781 ft | 447 kts | 4° |
| 2026-05-05 11:45 | 71.61623 | 13.26394 | 36788 ft | 447 kts | 5° |
| 2026-05-05 11:46 | 71.67824 | 13.27638 | 36778 ft | 446 kts | 4° |
| 2026-05-05 11:46 | 71.74017 | 13.28888 | 36787 ft | 446 kts | 5° |
| 2026-05-05 11:47 | 71.80208 | 13.30147 | 36808 ft | 445 kts | 5° |
| 2026-05-05 11:47 | 71.86389 | 13.31411 | 36786 ft | 445 kts | 5° |
| 2026-05-05 11:48 | 71.95537 | 13.33298 | 36805 ft | 444 kts | 5° |
| 2026-05-05 11:48 | 72.01658 | 13.34571 | 36803 ft | 444 kts | 5° |
| 2026-05-05 11:49 | 72.07836 | 13.35864 | 36818 ft | 444 kts | 5° |
| 2026-05-05 11:49 | 72.14007 | 13.37165 | 36824 ft | 444 kts | 5° |
| 2026-05-05 11:50 | 72.20173 | 13.38474 | 36808 ft | 445 kts | 5° |
| 2026-05-05 11:50 | 72.26349 | 13.39792 | 36836 ft | 444 kts | 5° |
| 2026-05-05 11:51 | 72.32525 | 13.41121 | 36830 ft | 445 kts | 5° |
| 2026-05-05 11:51 | 72.38705 | 13.42459 | 36837 ft | 445 kts | 5° |
| 2026-05-05 11:52 | 72.44881 | 13.43805 | 36846 ft | 445 kts | 5° |
| 2026-05-05 11:52 | 72.51060 | 13.45161 | 36843 ft | 445 kts | 5° |
| 2026-05-05 11:53 | 72.57230 | 13.46525 | 36841 ft | 445 kts | 5° |
| 2026-05-05 11:53 | 72.63406 | 13.47899 | 36847 ft | 444 kts | 5° |
| 2026-05-05 11:54 | 72.69572 | 13.49280 | 36865 ft | 444 kts | 5° |
| 2026-05-05 11:54 | 72.75736 | 13.50671 | 36852 ft | 444 kts | 5° |
| 2026-05-05 11:55 | 72.81881 | 13.52067 | 36869 ft | 443 kts | 5° |
| 2026-05-05 11:55 | 72.88034 | 13.53474 | 36871 ft | 443 kts | 5° |
| 2026-05-05 11:56 | 72.94190 | 13.54893 | 36877 ft | 443 kts | 5° |
| 2026-05-05 11:56 | 73.00345 | 13.56321 | 36875 ft | 443 kts | 5° |
| 2026-05-05 11:57 | 73.06496 | 13.57757 | 36899 ft | 443 kts | 5° |
| 2026-05-05 11:57 | 73.12637 | 13.59203 | 36892 ft | 443 kts | 5° |
| 2026-05-05 11:58 | 73.18794 | 13.60662 | 36879 ft | 444 kts | 5° |
| 2026-05-05 11:58 | 73.24915 | 13.62122 | 36889 ft | 444 kts | 5° |
| 2026-05-05 11:59 | 73.31120 | 13.63614 | 36896 ft | 444 kts | 5° |
| 2026-05-05 11:59 | 73.37115 | 13.65066 | 36893 ft | 444 kts | 5° |
| 2026-05-05 12:00 | 73.43282 | 13.66569 | 36904 ft | 444 kts | 5° |
| 2026-05-05 12:00 | 73.49438 | 13.68080 | 36918 ft | 444 kts | 6° |
| 2026-05-05 12:01 | 73.55602 | 13.69606 | 36904 ft | 444 kts | 5° |
| 2026-05-05 12:01 | 73.61771 | 13.71143 | 36911 ft | 444 kts | 5° |
| 2026-05-05 12:02 | 73.67941 | 13.72691 | 36923 ft | 444 kts | 6° |
| 2026-05-05 12:02 | 73.74110 | 13.74252 | 36918 ft | 445 kts | 5° |
| 2026-05-05 12:03 | 73.80279 | 13.75824 | 36924 ft | 445 kts | 5° |
| 2026-05-05 12:03 | 73.86451 | 13.77407 | 36943 ft | 444 kts | 5° |
| 2026-05-05 12:04 | 73.92619 | 13.79002 | 36936 ft | 445 kts | 6° |
| 2026-05-05 12:04 | 73.98792 | 13.80611 | 36931 ft | 445 kts | 5° |
| 2026-05-05 12:05 | 74.04961 | 13.82230 | 36940 ft | 445 kts | 6° |
| 2026-05-05 12:05 | 74.11133 | 13.83863 | 36953 ft | 445 kts | 6° |
| 2026-05-05 12:06 | 74.17292 | 13.85505 | 36937 ft | 445 kts | 5° |
| 2026-05-05 12:06 | 74.23466 | 13.87162 | 36958 ft | 445 kts | 6° |
| 2026-05-05 12:07 | 74.29643 | 13.88833 | 36957 ft | 445 kts | 6° |
| 2026-05-05 12:07 | 74.35815 | 13.90517 | 36960 ft | 445 kts | 6° |
| 2026-05-05 12:08 | 74.41990 | 13.92214 | 36965 ft | 445 kts | 5° |
| 2026-05-05 12:08 | 74.48147 | 13.93919 | 36965 ft | 445 kts | 6° |
| 2026-05-05 12:09 | 74.54324 | 13.95644 | 36959 ft | 445 kts | 5° |
| 2026-05-05 12:09 | 74.60491 | 13.97378 | 36958 ft | 445 kts | 5° |
| 2026-05-05 12:10 | 74.66662 | 13.99127 | 36975 ft | 444 kts | 5° |
| 2026-05-05 12:10 | 74.72821 | 14.00887 | 36968 ft | 444 kts | 6° |
| 2026-05-05 12:11 | 74.78979 | 14.02661 | 36981 ft | 444 kts | 5° |
| 2026-05-05 12:11 | 74.85138 | 14.04449 | 36988 ft | 444 kts | 6° |
| 2026-05-05 12:12 | 74.91292 | 14.06250 | 36978 ft | 443 kts | 6° |
| 2026-05-05 12:12 | 74.97399 | 14.08052 | 36988 ft | 444 kts | 5° |
| 2026-05-05 12:13 | 75.03538 | 14.09877 | 36978 ft | 443 kts | 6° |
| 2026-05-05 12:13 | 75.09693 | 14.11722 | 37003 ft | 444 kts | 6° |
| 2026-05-05 12:14 | 75.15849 | 14.13582 | 36996 ft | 444 kts | 6° |
| 2026-05-05 12:14 | 75.22008 | 14.15458 | 37001 ft | 444 kts | 6° |
| 2026-05-05 12:15 | 75.28177 | 14.17353 | 37012 ft | 444 kts | 6° |
| 2026-05-05 12:15 | 75.34348 | 14.19265 | 37000 ft | 445 kts | 6° |
| 2026-05-05 12:16 | 75.40521 | 14.21192 | 37008 ft | 445 kts | 6° |
| 2026-05-05 12:16 | 75.46699 | 14.23137 | 37022 ft | 445 kts | 6° |
| 2026-05-05 12:17 | 75.52872 | 14.25097 | 37013 ft | 445 kts | 6° |
| 2026-05-05 12:17 | 75.59047 | 14.27074 | 37012 ft | 445 kts | 5° |
| 2026-05-05 12:18 | 75.65222 | 14.29067 | 37024 ft | 445 kts | 6° |
| 2026-05-05 12:18 | 75.71400 | 14.31079 | 37019 ft | 445 kts | 6° |
| 2026-05-05 12:19 | 75.77572 | 14.33106 | 37019 ft | 445 kts | 6° |
| 2026-05-05 12:19 | 75.83742 | 14.35150 | 37040 ft | 445 kts | 6° |
| 2026-05-05 12:20 | 75.89924 | 14.37215 | 37042 ft | 445 kts | 6° |
| 2026-05-05 12:20 | 75.95064 | 14.38946 | 36957 ft | 448 kts | 5° |
| 2026-05-05 12:21 | 75.98193 | 14.40007 | 36511 ft | 451 kts | 6° |
| 2026-05-05 12:21 | 76.01297 | 14.41060 | 36125 ft | 445 kts | 6° |
| 2026-05-05 12:21 | 76.04368 | 14.42108 | 35699 ft | 441 kts | 6° |
| 2026-05-05 12:21 | 76.07415 | 14.43151 | 35289 ft | 438 kts | 6° |
| 2026-05-05 12:22 | 76.10436 | 14.44190 | 34879 ft | 434 kts | 6° |
| 2026-05-05 12:22 | 76.13420 | 14.45223 | 34452 ft | 431 kts | 6° |
| 2026-05-05 12:22 | 76.16403 | 14.46258 | 34043 ft | 428 kts | 7° |
| 2026-05-05 12:22 | 76.19356 | 14.47288 | 33567 ft | 425 kts | 6° |
| 2026-05-05 12:23 | 76.22290 | 14.48317 | 33130 ft | 421 kts | 6° |
| 2026-05-05 12:23 | 76.25192 | 14.49337 | 32725 ft | 416 kts | 7° |
| 2026-05-05 12:23 | 76.28058 | 14.50348 | 32338 ft | 411 kts | 7° |
| 2026-05-05 12:23 | 76.30896 | 14.51356 | 31927 ft | 408 kts | 6° |
| 2026-05-05 12:24 | 76.33711 | 14.52358 | 31532 ft | 404 kts | 7° |
| 2026-05-05 12:24 | 76.36497 | 14.53354 | 31155 ft | 400 kts | 7° |
| 2026-05-05 12:24 | 76.39258 | 14.54347 | 30778 ft | 396 kts | 6° |
| 2026-05-05 12:24 | 76.41993 | 14.55333 | 30407 ft | 393 kts | 7° |
| 2026-05-05 12:25 | 76.44703 | 14.56314 | 29995 ft | 389 kts | 7° |
| 2026-05-05 12:25 | 76.47389 | 14.57289 | 29563 ft | 385 kts | 7° |
| 2026-05-05 12:25 | 76.50038 | 14.58253 | 29167 ft | 379 kts | 7° |
| 2026-05-05 12:25 | 76.52645 | 14.59206 | 28801 ft | 374 kts | 8° |
| 2026-05-05 12:26 | 76.55229 | 14.60155 | 28418 ft | 369 kts | 7° |
| 2026-05-05 12:26 | 76.57767 | 14.61091 | 28043 ft | 365 kts | 8° |
| 2026-05-05 12:26 | 76.60281 | 14.62022 | 27664 ft | 360 kts | 8° |
| 2026-05-05 12:26 | 76.62765 | 14.62946 | 27305 ft | 356 kts | 8° |
| 2026-05-05 12:27 | 76.65218 | 14.63863 | 26924 ft | 353 kts | 7° |
| 2026-05-05 12:27 | 76.67652 | 14.64774 | 26582 ft | 349 kts | 8° |
| 2026-05-05 12:27 | 76.70053 | 14.65676 | 26215 ft | 345 kts | 8° |
| 2026-05-05 12:27 | 76.72439 | 14.66578 | 25869 ft | 341 kts | 7° |
| 2026-05-05 12:28 | 76.74798 | 14.67471 | 25512 ft | 339 kts | 8° |
| 2026-05-05 12:28 | 76.77138 | 14.68359 | 25164 ft | 336 kts | 8° |
| 2026-05-05 12:28 | 76.79460 | 14.69245 | 24822 ft | 333 kts | 8° |
| 2026-05-05 12:28 | 76.81761 | 14.70127 | 24468 ft | 331 kts | 7° |
| 2026-05-05 12:29 | 76.84046 | 14.71003 | 24134 ft | 328 kts | 8° |
| 2026-05-05 12:29 | 76.86311 | 14.71875 | 23812 ft | 326 kts | 8° |
| 2026-05-05 12:29 | 76.88560 | 14.72745 | 23433 ft | 324 kts | 7° |
| 2026-05-05 12:29 | 76.90792 | 14.73611 | 23074 ft | 320 kts | 8° |
| 2026-05-05 12:30 | 76.93000 | 14.74467 | 22748 ft | 316 kts | 8° |
| 2026-05-05 12:30 | 76.95180 | 14.75317 | 22430 ft | 312 kts | 8° |
| 2026-05-05 12:30 | 76.97332 | 14.76159 | 22111 ft | 309 kts | 8° |
| 2026-05-05 12:30 | 76.99467 | 14.76998 | 21786 ft | 307 kts | 8° |
| 2026-05-05 12:31 | 77.01584 | 14.77832 | 21466 ft | 304 kts | 8° |
| 2026-05-05 12:31 | 77.03684 | 14.78663 | 21153 ft | 302 kts | 8° |
| 2026-05-05 12:31 | 77.05740 | 14.79480 | 20842 ft | 300 kts | 8° |
| 2026-05-05 12:31 | 77.07811 | 14.80304 | 20537 ft | 298 kts | 8° |
| 2026-05-05 12:32 | 77.09867 | 14.81125 | 20228 ft | 296 kts | 8° |
| 2026-05-05 12:32 | 77.11910 | 14.81943 | 19923 ft | 294 kts | 8° |
| 2026-05-05 12:32 | 77.13943 | 14.82760 | 19612 ft | 292 kts | 8° |
| 2026-05-05 12:32 | 77.15963 | 14.83574 | 19307 ft | 291 kts | 9° |
| 2026-05-05 12:33 | 77.17971 | 14.84385 | 18988 ft | 289 kts | 9° |
| 2026-05-05 12:33 | 77.19964 | 14.85194 | 18712 ft | 287 kts | 8° |
| 2026-05-05 12:33 | 77.21954 | 14.86004 | 18404 ft | 286 kts | 8° |
| 2026-05-05 12:33 | 77.23927 | 14.86809 | 18074 ft | 284 kts | 8° |
| 2026-05-05 12:34 | 77.25884 | 14.87609 | 17795 ft | 281 kts | 8° |
| 2026-05-05 12:34 | 77.27825 | 14.88405 | 17495 ft | 279 kts | 8° |
| 2026-05-05 12:34 | 77.29752 | 14.89199 | 17208 ft | 278 kts | 8° |
| 2026-05-05 12:34 | 77.31681 | 14.89998 | 16901 ft | 279 kts | 8° |
| 2026-05-05 12:35 | 77.33634 | 14.90812 | 16609 ft | 285 kts | 8° |
| 2026-05-05 12:35 | 77.35631 | 14.91648 | 16301 ft | 291 kts | 8° |
| 2026-05-05 12:35 | 77.37645 | 14.92488 | 15992 ft | 290 kts | 8° |
| 2026-05-05 12:35 | 77.39647 | 14.93321 | 15675 ft | 288 kts | 8° |
| 2026-05-05 12:36 | 77.41633 | 14.94150 | 15383 ft | 286 kts | 8° |
| 2026-05-05 12:36 | 77.43606 | 14.94978 | 15077 ft | 283 kts | 8° |
| 2026-05-05 12:36 | 77.45558 | 14.95800 | 14773 ft | 281 kts | 8° |
| 2026-05-05 12:36 | 77.47502 | 14.96622 | 14479 ft | 280 kts | 8° |
| 2026-05-05 12:37 | 77.49442 | 14.97445 | 14175 ft | 279 kts | 8° |
| 2026-05-05 12:37 | 77.51371 | 14.98269 | 13860 ft | 278 kts | 8° |
| 2026-05-05 12:37 | 77.53279 | 14.99080 | 13575 ft | 275 kts | 8° |
| 2026-05-05 12:37 | 77.55180 | 14.99892 | 13271 ft | 273 kts | 8° |
| 2026-05-05 12:38 | 77.57068 | 15.00703 | 12976 ft | 271 kts | 8° |
| 2026-05-05 12:38 | 77.58941 | 15.01510 | 12679 ft | 269 kts | 8° |
| 2026-05-05 12:38 | 77.60799 | 15.02313 | 12398 ft | 267 kts | 8° |
| 2026-05-05 12:38 | 77.62648 | 15.03118 | 12113 ft | 266 kts | 8° |
| 2026-05-05 12:39 | 77.64488 | 15.03918 | 11815 ft | 265 kts | 8° |
| 2026-05-05 12:39 | 77.66309 | 15.04710 | 11579 ft | 261 kts | 8° |
| 2026-05-05 12:39 | 77.68105 | 15.05494 | 11320 ft | 259 kts | 8° |
| 2026-05-05 12:39 | 77.69894 | 15.06280 | 11055 ft | 257 kts | 9° |
| 2026-05-05 12:40 | 77.71676 | 15.07065 | 10761 ft | 257 kts | 9° |
| 2026-05-05 12:40 | 77.73457 | 15.07851 | 10474 ft | 257 kts | 9° |
| 2026-05-05 12:40 | 77.75224 | 15.08630 | 10320 ft | 251 kts | 9° |
| 2026-05-05 12:40 | 77.76944 | 15.09389 | 10198 ft | 245 kts | 9° |
| 2026-05-05 12:41 | 77.78625 | 15.10135 | 10000 ft | 242 kts | 9° |
| 2026-05-05 12:41 | 77.80292 | 15.10880 | 9754 ft | 240 kts | 9° |
| 2026-05-05 12:41 | 77.81956 | 15.11566 | 9494 ft | 240 kts | 5° |
| 2026-05-05 12:41 | 77.83621 | 15.10490 | 9276 ft | 243 kts | 352° |
| 2026-05-05 12:42 | 77.85266 | 15.08619 | 9000 ft | 243 kts | 352° |
| 2026-05-05 12:42 | 77.86908 | 15.06757 | 8755 ft | 242 kts | 352° |
| 2026-05-05 12:42 | 77.88550 | 15.04915 | 8484 ft | 241 kts | 352° |
| 2026-05-05 12:42 | 77.90177 | 15.03110 | 8251 ft | 240 kts | 352° |
| 2026-05-05 12:43 | 77.91780 | 15.01337 | 7997 ft | 239 kts | 352° |
| 2026-05-05 12:43 | 77.93415 | 14.99537 | 7746 ft | 236 kts | 353° |
| 2026-05-05 12:43 | 77.95012 | 14.97787 | 7516 ft | 235 kts | 353° |
| 2026-05-05 12:43 | 77.96609 | 14.96039 | 7250 ft | 236 kts | 353° |
| 2026-05-05 12:44 | 77.98205 | 14.94284 | 7018 ft | 234 kts | 353° |
| 2026-05-05 12:44 | 77.99768 | 14.92569 | 6766 ft | 234 kts | 353° |
| 2026-05-05 12:44 | 78.01350 | 14.90826 | 6518 ft | 233 kts | 353° |
| 2026-05-05 12:44 | 78.02930 | 14.89062 | 6248 ft | 233 kts | 353° |
| 2026-05-05 12:45 | 78.04500 | 14.87336 | 6034 ft | 230 kts | 353° |
| 2026-05-05 12:45 | 78.06052 | 14.85620 | 5791 ft | 227 kts | 353° |
| 2026-05-05 12:45 | 78.07591 | 14.84057 | 5546 ft | 225 kts | 356° |
| 2026-05-05 12:45 | 78.09152 | 14.82782 | 5172 ft | 232 kts | 356° |
| 2026-05-05 12:46 | 78.10753 | 14.81492 | 5143 ft | 235 kts | 356° |
| 2026-05-05 12:46 | 78.12368 | 14.80189 | 4944 ft | 235 kts | 357° |
| 2026-05-05 12:46 | 78.13987 | 14.78902 | 4667 ft | 234 kts | 356° |
| 2026-05-05 12:46 | 78.15568 | 14.77578 | 4556 ft | 228 kts | 355° |
| 2026-05-05 12:47 | 78.17116 | 14.76136 | 4345 ft | 225 kts | 355° |
| 2026-05-05 12:47 | 78.18671 | 14.74725 | 3840 ft | 233 kts | 354° |
| 2026-05-05 12:47 | 78.20298 | 14.73918 | 3349 ft | 235 kts | 5° |
| 2026-05-05 12:47 | 78.21895 | 14.74932 | 2977 ft | 227 kts | 18° |
| 2026-05-05 12:48 | 78.23297 | 14.78039 | 2662 ft | 219 kts | 35° |
| 2026-05-05 12:48 | 78.24400 | 14.82999 | 2397 ft | 211 kts | 50° |
| 2026-05-05 12:48 | 78.25244 | 14.88695 | 2101 ft | 206 kts | 54° |
| 2026-05-05 12:48 | 78.26054 | 14.94450 | 1635 ft | 200 kts | 59° |
| 2026-05-05 12:49 | 78.26617 | 15.00476 | 1232 ft | 191 kts | 71° |
| 2026-05-05 12:49 | 78.26864 | 15.06787 | 823 ft | 184 kts | 85° |
| 2026-05-05 12:49 | 78.26735 | 15.12725 | 697 ft | 170 kts | 102° |
| 2026-05-05 12:49 | 78.26334 | 15.18182 | 594 ft | 166 kts | 109° |
| 2026-05-05 12:50 | 78.25904 | 15.23167 | 632 ft | 151 kts | 106° |
| 2026-05-05 12:50 | 78.25606 | 15.27914 | 685 ft | 139 kts | 100° |
| 2026-05-05 12:50 | 78.25374 | 15.32321 | 552 ft | 130 kts | 98° |
| 2026-05-05 12:50 | 78.25163 | 15.36524 | 331 ft | 123 kts | 99° |
| 2026-05-05 12:51 | 78.24947 | 15.40576 | 165 ft | 124 kts | 99° |
| 2026-05-05 12:51 | 78.24723 | 15.44607 | 202 ft | 131 kts | 101° |
| 2026-05-05 12:51 | 78.24438 | 15.49568 | 602 ft | 172 kts | 102° |
| 2026-05-05 12:51 | 78.24098 | 15.55605 | 1324 ft | 197 kts | 102° |
| 2026-05-05 12:52 | 78.23594 | 15.62041 | 1882 ft | 209 kts | 113° |
| 2026-05-05 12:52 | 78.22840 | 15.68145 | 2171 ft | 204 kts | 120° |
| 2026-05-05 12:52 | 78.21962 | 15.73612 | 2350 ft | 212 kts | 124° |
| 2026-05-05 12:52 | 78.20985 | 15.79456 | 2577 ft | 228 kts | 124° |
| 2026-05-05 12:53 | 78.19828 | 15.85181 | 2839 ft | 244 kts | 132° |
| 2026-05-05 12:53 | 78.18555 | 15.90793 | 3290 ft | 248 kts | 134° |
| 2026-05-05 12:53 | 78.17006 | 15.94846 | 3750 ft | 263 kts | 162° |
| 2026-05-05 12:53 | 78.15151 | 15.94829 | 4261 ft | 276 kts | 191° |
| 2026-05-05 12:54 | 78.12240 | 15.82851 | 5101 ft | 290 kts | 247° |
| 2026-05-05 12:54 | 78.11599 | 15.73487 | 5124 ft | 304 kts | 257° |
| 2026-05-05 12:54 | 78.11052 | 15.63169 | 5130 ft | 319 kts | 258° |
| 2026-05-05 12:55 | 78.10507 | 15.52746 | 5091 ft | 325 kts | 257° |
| 2026-05-05 12:55 | 78.09915 | 15.41875 | 5105 ft | 333 kts | 257° |
| 2026-05-05 12:55 | 78.09339 | 15.31445 | 5081 ft | 308 kts | 257° |
| 2026-05-05 12:55 | 78.08806 | 15.21887 | 5078 ft | 290 kts | 257° |
| 2026-05-05 12:56 | 78.08289 | 15.12598 | 5084 ft | 284 kts | 257° |
| 2026-05-05 12:56 | 78.07822 | 15.03319 | 5119 ft | 284 kts | 266° |
| 2026-05-05 12:56 | 78.08046 | 14.94068 | 5079 ft | 272 kts | 298° |
| 2026-05-05 12:56 | 78.09065 | 14.86878 | 5041 ft | 253 kts | 324° |
| 2026-05-05 12:57 | 78.10492 | 14.82269 | 4942 ft | 242 kts | 342° |
| 2026-05-05 12:57 | 78.12097 | 14.80022 | 4657 ft | 240 kts | 355° |
| 2026-05-05 12:57 | 78.13736 | 14.78705 | 4383 ft | 238 kts | 357° |
| 2026-05-05 12:57 | 78.15360 | 14.77460 | 4133 ft | 236 kts | 356° |
| 2026-05-05 12:58 | 78.16944 | 14.76226 | 3922 ft | 225 kts | 357° |
| 2026-05-05 12:58 | 78.18488 | 14.75097 | 3566 ft | 221 kts | 356° |
| 2026-05-05 12:58 | 78.19980 | 14.74465 | 3233 ft | 213 kts | 5° |
| 2026-05-05 12:58 | 78.21429 | 14.75468 | 2908 ft | 204 kts | 17° |
| 2026-05-05 12:59 | 78.22723 | 14.77501 | 2651 ft | 182 kts | 24° |
| 2026-05-05 12:59 | 78.23736 | 14.80473 | 2327 ft | 169 kts | 40° |
| 2026-05-05 12:59 | 78.24515 | 14.84695 | 1868 ft | 163 kts | 53° |
| 2026-05-05 13:00 | 78.25726 | 14.93469 | 1281 ft | 146 kts | 56° |
| 2026-05-05 13:00 | 78.26259 | 14.97736 | 1302 ft | 140 kts | 60° |
| 2026-05-05 13:01 | 78.26518 | 15.11786 | 1155 ft | 149 kts | 101° |
| 2026-05-05 13:01 | 78.26249 | 15.16653 | 1081 ft | 146 kts | 100° |
| 2026-05-05 13:01 | 78.25998 | 15.21486 | 995 ft | 147 kts | 101° |
| 2026-05-05 13:01 | 78.25739 | 15.26388 | 825 ft | 149 kts | 102° |
| 2026-05-05 13:02 | 78.25472 | 15.31285 | 613 ft | 147 kts | 103° |
| 2026-05-05 13:02 | 78.25202 | 15.36025 | 360 ft | 142 kts | 104° |
| 2026-05-05 13:02 | 78.24951 | 15.40626 | 164 ft | 138 kts | 105° |
| 2026-05-05 13:02 | 78.24698 | 15.45080 | 90 ft | 124 kts | 105° |
| 2026-05-05 13:03 | 78.24609 | 15.46647 | 94 ft | 9 kts | 105° |
| 2026-05-05 13:03 | 78.24586 | 15.47054 | 95 ft | 16 kts | 105° |
| 2026-05-05 13:03 | 78.24557 | 15.47596 | 98 ft | 17 kts | 104° |
| 2026-05-05 13:03 | 78.24555 | 15.48014 | 98 ft | 0 kts | 55° |
| 2026-05-05 13:04 | 78.24558 | 15.48033 | 98 ft | 2 kts | 53° |
| 2026-05-05 13:04 | 78.24577 | 15.48156 | 98 ft | 9 kts | 58° |
| 2026-05-05 13:04 | 78.24586 | 15.48329 | 97 ft | 0 kts | 82° |
| 2026-05-05 13:04 | 78.24587 | 15.48357 | 97 ft | 3 kts | 82° |
| 2026-05-05 13:05 | 78.24595 | 15.48578 | 94 ft | 12 kts | 75° |
| 2026-05-05 13:05 | 78.24628 | 15.48857 | 95 ft | 8 kts | 99° |
| 2026-05-05 13:05 | 78.24607 | 15.49102 | 95 ft | 8 kts | 121° |
| 2026-05-05 13:05 | 78.24574 | 15.49300 | 94 ft | 7 kts | 130° |
| 2026-05-05 13:06 | 78.24564 | 15.49452 | 96 ft | 7 kts | 83° |
| 2026-05-05 13:06 | 78.24589 | 15.49570 | 96 ft | 0 kts | 28° |
| 2026-05-05 13:08 | 78.24590 | 15.49574 | 94 ft | 1 kts | 34° |
| 2026-05-05 13:08 | 78.24602 | 15.49651 | 94 ft | 4 kts | 60° |
| 2026-05-05 13:09 | 78.24604 | 15.49716 | 94 ft | 2 kts | 78° |
| 2026-05-05 13:09 | 78.24606 | 15.49750 | 94 ft | 0 kts | 78° |